createdAt,value
2018-05-15T00:00:34.855Z,99.99
2018-05-15T00:01:34.789Z,99.99
2018-05-15T00:02:34.730Z,99.99
2018-05-15T00:03:34.723Z,99.99
2018-05-15T00:04:34.605Z,99.99
2018-05-15T00:05:34.544Z,99.99
2018-05-15T00:06:34.480Z,99.99
2018-05-15T00:07:34.419Z,99.99
2018-05-15T00:08:34.361Z,99.99
2018-05-15T00:09:34.296Z,99.99
2018-05-15T00:10:34.234Z,99.99
2018-05-15T00:11:34.170Z,99.99
2018-05-15T00:12:34.108Z,99.99
2018-05-15T00:13:34.050Z,99.99
2018-05-15T00:14:33.984Z,99.99
2018-05-15T00:15:33.922Z,99.99
2018-05-15T00:16:33.859Z,99.99
2018-05-15T00:17:33.797Z,99.99
2018-05-15T00:18:33.736Z,99.99
2018-05-15T00:19:33.674Z,99.99
2018-05-15T00:20:33.612Z,99.99
2018-05-15T00:21:33.549Z,99.99
2018-05-15T00:22:33.491Z,99.99
2018-05-15T00:23:33.423Z,99.99
2018-05-15T00:24:33.361Z,99.99
2018-05-15T00:25:33.300Z,99.99
2018-05-15T00:26:33.240Z,99.99
2018-05-15T00:27:33.176Z,99.99
2018-05-15T00:28:33.115Z,99.99
2018-05-15T00:29:33.052Z,99.99
2018-05-15T00:30:32.990Z,99.99
2018-05-15T00:31:32.928Z,99.99
2018-05-15T00:32:32.873Z,99.99
2018-05-15T00:33:32.804Z,99.99
2018-05-15T00:34:32.740Z,99.99
2018-05-15T00:35:32.678Z,99.99
2018-05-15T00:36:32.618Z,99.99
2018-05-15T00:37:32.554Z,99.99
2018-05-15T00:38:32.491Z,99.99
2018-05-15T00:39:32.431Z,99.99
2018-05-15T00:40:32.366Z,99.99
2018-05-15T00:41:32.305Z,99.99
2018-05-15T00:42:32.242Z,99.99
2018-05-15T00:43:32.185Z,99.99
2018-05-15T00:44:32.119Z,99.99
2018-05-15T00:45:32.056Z,99.99
2018-05-15T00:46:31.993Z,99.99
2018-05-15T00:47:31.936Z,99.99
2018-05-15T00:48:31.872Z,99.99
2018-05-15T00:49:31.809Z,99.99
2018-05-15T00:50:31.744Z,99.99
2018-05-15T00:51:31.685Z,99.99
2018-05-15T00:52:31.618Z,99.99
2018-05-15T00:53:31.557Z,99.99
2018-05-15T00:54:31.495Z,99.99
2018-05-15T00:55:31.431Z,99.99
2018-05-15T00:56:31.370Z,99.99
2018-05-15T00:57:31.308Z,99.99
2018-05-15T00:58:31.245Z,99.99
2018-05-15T00:59:31.184Z,99.99
2018-05-15T01:00:31.123Z,99.99
2018-05-15T01:01:31.129Z,99.99
2018-05-15T01:02:30.997Z,99.99
2018-05-15T01:03:30.934Z,99.99
2018-05-15T01:04:30.869Z,99.99
2018-05-15T01:05:30.809Z,99.99
2018-05-15T01:06:30.747Z,99.99
2018-05-15T01:07:30.685Z,99.99
2018-05-15T01:08:30.620Z,99.99
2018-05-15T01:09:30.560Z,99.99
2018-05-15T01:10:30.496Z,99.99
2018-05-15T01:11:30.434Z,99.99
2018-05-15T01:12:30.373Z,99.99
2018-05-15T01:13:30.310Z,99.99
2018-05-15T01:14:30.248Z,99.99
2018-05-15T01:15:30.186Z,99.99
2018-05-15T01:16:30.123Z,99.99
2018-05-15T01:17:30.061Z,99.99
2018-05-15T01:18:30.001Z,99.99
2018-05-15T01:19:29.936Z,99.99
2018-05-15T01:20:29.875Z,99.99
2018-05-15T01:21:29.811Z,99.99
2018-05-15T01:22:29.748Z,99.99
2018-05-15T01:23:29.687Z,99.99
2018-05-15T01:24:29.621Z,99.99
2018-05-15T01:25:29.564Z,99.99
2018-05-15T01:26:29.498Z,99.99
2018-05-15T01:27:29.442Z,99.99
2018-05-15T01:28:29.373Z,99.99
2018-05-15T01:29:29.312Z,99.99
2018-05-15T01:30:29.251Z,99.99
2018-05-15T01:31:29.187Z,99.99
2018-05-15T01:32:29.123Z,99.99
2018-05-15T01:33:29.061Z,99.99
2018-05-15T01:34:28.999Z,99.99
2018-05-15T01:35:28.938Z,99.99
2018-05-15T01:36:28.872Z,99.99
2018-05-15T01:37:28.812Z,99.99
2018-05-15T01:38:28.752Z,99.99
2018-05-15T01:39:28.688Z,99.99
2018-05-15T01:40:28.623Z,99.99
2018-05-15T01:41:28.561Z,99.99
2018-05-15T01:42:28.500Z,99.99
2018-05-15T01:43:28.440Z,99.99
2018-05-15T01:44:28.374Z,99.99
2018-05-15T01:45:28.310Z,99.99
2018-05-15T01:46:28.254Z,99.99
2018-05-15T01:47:28.195Z,99.99
2018-05-15T01:48:28.124Z,99.99
2018-05-15T01:49:28.067Z,99.99
2018-05-15T01:50:28.003Z,99.99
2018-05-15T01:51:27.937Z,99.99
2018-05-15T01:52:27.872Z,99.99
2018-05-15T01:53:27.812Z,99.99
2018-05-15T01:54:27.749Z,99.99
2018-05-15T01:55:27.693Z,99.99
2018-05-15T01:56:27.625Z,99.99
2018-05-15T01:57:27.560Z,99.99
2018-05-15T01:58:27.500Z,99.99
2018-05-15T01:59:27.435Z,99.99
2018-05-15T02:00:27.373Z,99.99
2018-05-15T02:01:27.315Z,99.99
2018-05-15T02:02:27.247Z,99.99
2018-05-15T02:03:27.185Z,99.99
2018-05-15T02:04:27.122Z,99.99
2018-05-15T02:05:27.061Z,99.99
2018-05-15T02:06:26.998Z,99.99
2018-05-15T02:07:26.938Z,99.99
2018-05-15T02:08:26.871Z,99.99
2018-05-15T02:09:26.809Z,99.99
2018-05-15T02:10:26.751Z,99.99
2018-05-15T02:11:26.681Z,99.99
2018-05-15T02:12:26.624Z,99.99
2018-05-15T02:13:26.559Z,99.99
2018-05-15T02:14:26.497Z,99.99
2018-05-15T02:15:26.433Z,99.99
2018-05-15T02:16:26.371Z,99.99
2018-05-15T02:17:26.310Z,99.99
2018-05-15T02:18:26.247Z,99.99
2018-05-15T02:19:26.187Z,99.99
2018-05-15T02:20:26.120Z,99.99
2018-05-15T02:21:26.056Z,99.99
2018-05-15T02:22:25.995Z,99.99
2018-05-15T02:23:25.934Z,99.99
2018-05-15T02:24:25.870Z,99.99
2018-05-15T02:25:25.812Z,99.99
2018-05-15T02:26:25.745Z,99.99
2018-05-15T02:27:25.683Z,99.99
2018-05-15T02:28:25.618Z,99.99
2018-05-15T02:29:25.557Z,99.99
2018-05-15T02:30:25.578Z,99.99
2018-05-15T02:31:25.433Z,99.99
2018-05-15T02:32:25.369Z,99.99
2018-05-15T02:33:25.305Z,99.99
2018-05-15T02:34:25.243Z,99.99
2018-05-15T02:35:25.180Z,99.99
2018-05-15T02:36:25.117Z,99.99
2018-05-15T02:37:25.055Z,99.99
2018-05-15T02:38:24.999Z,99.99
2018-05-15T02:39:24.932Z,99.99
2018-05-15T02:40:24.868Z,99.99
2018-05-15T02:41:24.803Z,99.99
2018-05-15T02:42:24.742Z,99.99
2018-05-15T02:43:24.676Z,99.99
2018-05-15T02:44:24.614Z,99.99
2018-05-15T02:45:24.553Z,99.99
2018-05-15T02:46:24.488Z,99.99
2018-05-15T02:47:24.424Z,99.99
2018-05-15T02:48:24.363Z,99.99
2018-05-15T02:49:24.301Z,99.99
2018-05-15T02:50:24.242Z,99.99
2018-05-15T02:51:24.172Z,99.99
2018-05-15T02:52:24.112Z,99.99
2018-05-15T02:53:24.052Z,99.99
2018-05-15T02:54:23.989Z,99.99
2018-05-15T02:55:23.923Z,99.99
2018-05-15T02:56:23.860Z,99.99
2018-05-15T02:57:23.799Z,99.99
2018-05-15T02:58:23.736Z,99.99
2018-05-15T02:59:23.672Z,99.99
2018-05-15T03:00:23.610Z,99.99
2018-05-15T03:01:23.558Z,99.99
2018-05-15T03:02:23.485Z,99.99
2018-05-15T03:03:23.426Z,99.99
2018-05-15T03:04:23.357Z,99.99
2018-05-15T03:05:23.294Z,99.99
2018-05-15T03:06:23.233Z,99.99
2018-05-15T03:07:23.169Z,99.99
2018-05-15T03:08:23.111Z,99.99
2018-05-15T03:09:23.040Z,99.99
2018-05-15T03:10:22.981Z,99.99
2018-05-15T03:11:22.916Z,99.99
2018-05-15T03:12:22.859Z,99.99
2018-05-15T03:13:22.796Z,99.99
2018-05-15T03:14:22.734Z,99.99
2018-05-15T03:15:22.666Z,99.99
2018-05-15T03:16:22.610Z,99.99
2018-05-15T03:17:22.536Z,99.99
2018-05-15T03:18:22.483Z,99.99
2018-05-15T03:19:22.415Z,99.99
2018-05-15T03:20:22.351Z,99.99
2018-05-15T03:21:22.288Z,99.99
2018-05-15T03:22:22.228Z,99.99
2018-05-15T03:23:22.164Z,99.99
2018-05-15T03:24:22.101Z,99.99
2018-05-15T03:25:22.039Z,99.99
2018-05-15T03:26:21.977Z,99.99
2018-05-15T03:27:21.912Z,99.99
2018-05-15T03:28:21.852Z,99.99
2018-05-15T03:29:21.784Z,99.99
2018-05-15T03:30:21.725Z,99.99
2018-05-15T03:31:21.663Z,99.99
2018-05-15T03:32:21.600Z,99.99
2018-05-15T03:33:21.541Z,99.99
2018-05-15T03:34:21.478Z,99.99
2018-05-15T03:35:21.413Z,99.99
2018-05-15T03:36:21.352Z,99.99
2018-05-15T03:37:21.286Z,99.99
2018-05-15T03:38:21.222Z,99.99
2018-05-15T03:39:21.160Z,99.99
2018-05-15T03:40:21.098Z,99.99
2018-05-15T03:41:21.042Z,99.99
2018-05-15T03:42:20.972Z,99.99
2018-05-15T03:43:20.908Z,99.99
2018-05-15T03:44:20.847Z,99.99
2018-05-15T03:45:20.785Z,99.99
2018-05-15T03:46:20.722Z,99.99
2018-05-15T03:47:20.659Z,99.99
2018-05-15T03:48:20.598Z,99.99
2018-05-15T03:49:20.532Z,99.99
2018-05-15T03:50:20.473Z,99.99
2018-05-15T03:51:20.408Z,99.99
2018-05-15T03:52:20.345Z,99.99
2018-05-15T03:53:20.283Z,99.99
2018-05-15T03:54:20.218Z,99.99
2018-05-15T03:55:20.156Z,99.99
2018-05-15T03:56:20.095Z,99.99
2018-05-15T03:57:20.032Z,99.99
2018-05-15T03:58:19.970Z,99.99
2018-05-15T03:59:19.905Z,99.99
2018-05-15T04:00:19.866Z,99.99
2018-05-15T04:01:19.780Z,99.99
2018-05-15T04:02:19.732Z,99.99
2018-05-15T04:03:19.653Z,99.99
2018-05-15T04:04:19.593Z,99.99
2018-05-15T04:05:19.532Z,99.99
2018-05-15T04:06:19.467Z,99.99
2018-05-15T04:07:19.403Z,99.99
2018-05-15T04:08:19.342Z,99.99
2018-05-15T04:09:19.284Z,99.99
2018-05-15T04:10:19.219Z,99.99
2018-05-15T04:11:19.155Z,99.99
2018-05-15T04:12:19.090Z,99.99
2018-05-15T04:13:19.030Z,99.99
2018-05-15T04:14:18.966Z,99.99
2018-05-15T04:15:18.904Z,99.99
2018-05-15T04:16:18.840Z,99.99
2018-05-15T04:17:18.778Z,99.99
2018-05-15T04:18:18.714Z,99.99
2018-05-15T04:19:18.653Z,99.99
2018-05-15T04:20:18.590Z,99.99
2018-05-15T04:21:18.527Z,99.99
2018-05-15T04:22:18.465Z,99.99
2018-05-15T04:23:18.403Z,99.99
2018-05-15T04:24:18.337Z,99.99
2018-05-15T04:25:18.279Z,99.99
2018-05-15T04:26:18.214Z,99.99
2018-05-15T04:27:18.151Z,99.99
2018-05-15T04:28:18.195Z,99.99
2018-05-15T04:29:18.028Z,99.99
2018-05-15T04:30:17.963Z,99.99
2018-05-15T04:31:17.900Z,99.99
2018-05-15T04:32:17.835Z,99.99
2018-05-15T04:33:17.775Z,99.99
2018-05-15T04:34:17.723Z,99.99
2018-05-15T04:35:17.731Z,99.99
2018-05-15T04:36:17.586Z,99.99
2018-05-15T04:37:17.527Z,99.99
2018-05-15T04:38:17.461Z,99.99
2018-05-15T04:39:17.398Z,99.99
2018-05-15T04:40:17.337Z,99.99
2018-05-15T04:41:17.275Z,99.99
2018-05-15T04:42:17.213Z,99.99
2018-05-15T04:43:17.148Z,99.99
2018-05-15T04:44:17.083Z,99.99
2018-05-15T04:45:17.029Z,99.99
2018-05-15T04:46:16.961Z,99.99
2018-05-15T04:47:16.897Z,99.99
2018-05-15T04:48:16.836Z,99.99
2018-05-15T04:49:16.797Z,99.99
2018-05-15T04:50:16.710Z,99.99
2018-05-15T04:51:16.649Z,99.99
2018-05-15T04:52:16.585Z,99.99
2018-05-15T04:53:16.525Z,99.99
2018-05-15T04:54:16.461Z,99.99
2018-05-15T04:55:16.397Z,99.99
2018-05-15T04:56:16.336Z,99.99
2018-05-15T04:57:16.285Z,99.99
2018-05-15T04:58:16.207Z,99.99
2018-05-15T04:59:16.146Z,99.99
2018-05-15T05:00:16.084Z,99.99
2018-05-15T05:01:16.021Z,99.99
2018-05-15T05:02:15.959Z,99.99
2018-05-15T05:03:15.896Z,99.99
2018-05-15T05:04:15.834Z,99.99
2018-05-15T05:05:15.776Z,99.99
2018-05-15T05:06:15.709Z,99.99
2018-05-15T05:07:15.647Z,99.99
2018-05-15T05:08:15.584Z,99.99
2018-05-15T05:09:15.520Z,99.99
2018-05-15T05:10:15.463Z,99.99
2018-05-15T05:11:15.397Z,99.99
2018-05-15T05:12:15.334Z,99.99
2018-05-15T05:13:15.271Z,99.99
2018-05-15T05:14:15.209Z,99.99
2018-05-15T05:15:15.147Z,99.99
2018-05-15T05:16:15.083Z,99.99
2018-05-15T05:17:15.022Z,99.99
2018-05-15T05:18:14.960Z,99.99
2018-05-15T05:19:14.904Z,99.99
2018-05-15T05:20:14.835Z,99.99
2018-05-15T05:21:14.776Z,99.99
2018-05-15T05:22:14.710Z,99.99
2018-05-15T05:23:14.648Z,99.99
2018-05-15T05:24:14.585Z,99.99
2018-05-15T05:25:14.522Z,99.99
2018-05-15T05:26:14.465Z,99.99
2018-05-15T05:27:14.429Z,99.99
2018-05-15T05:28:14.339Z,99.99
2018-05-15T05:29:14.289Z,99.99
2018-05-15T05:30:14.210Z,99.99
2018-05-15T05:31:14.154Z,99.99
2018-05-15T05:32:14.085Z,99.99
2018-05-15T05:33:14.042Z,99.99
2018-05-15T05:34:13.961Z,99.99
2018-05-15T05:35:13.898Z,99.99
2018-05-15T05:36:13.837Z,99.99
2018-05-15T05:37:13.772Z,99.99
2018-05-15T05:38:13.710Z,99.85
2018-05-15T05:39:13.648Z,99.99
2018-05-15T05:40:13.672Z,99.66
2018-05-15T05:41:13.530Z,99.38
2018-05-15T05:42:13.468Z,99.66
2018-05-15T05:43:13.401Z,99.28
2018-05-15T05:44:13.338Z,98.99
2018-05-15T05:45:13.271Z,98.61
2018-05-15T05:46:13.281Z,98.80
2018-05-15T05:47:13.150Z,98.52
2018-05-15T05:48:13.087Z,98.23
2018-05-15T05:49:13.027Z,98.38
2018-05-15T05:50:12.964Z,97.13
2018-05-15T05:51:12.899Z,97.80
2018-05-15T05:52:12.840Z,96.84
2018-05-15T05:53:12.776Z,97.80
2018-05-15T05:54:12.712Z,98.57
2018-05-15T05:55:12.654Z,98.09
2018-05-15T05:56:12.589Z,98.57
2018-05-15T05:57:12.527Z,98.75
2018-05-15T05:58:12.466Z,98.33
2018-05-15T05:59:12.460Z,97.75
2018-05-15T06:00:12.340Z,98.23
2018-05-15T06:01:12.280Z,98.28
2018-05-15T06:02:12.220Z,98.90
2018-05-15T06:03:12.154Z,98.23
2018-05-15T06:04:12.527Z,97.71
2018-05-15T06:05:12.028Z,98.28
2018-05-15T06:06:11.968Z,98.38
2018-05-15T06:07:11.906Z,98.66
2018-05-15T06:08:11.843Z,98.38
2018-05-15T06:09:11.784Z,98.66
2018-05-15T06:10:11.718Z,98.75
2018-05-15T06:11:11.659Z,98.71
2018-05-15T06:12:11.594Z,98.61
2018-05-15T06:13:11.533Z,99.19
2018-05-15T06:14:11.484Z,99.85
2018-05-15T06:15:11.408Z,99.95
2018-05-15T06:16:11.348Z,99.99
2018-05-15T06:17:11.285Z,99.99
2018-05-15T06:18:11.223Z,99.76
2018-05-15T06:19:11.158Z,99.99
2018-05-15T06:20:11.099Z,99.76
2018-05-15T06:21:11.036Z,99.19
2018-05-15T06:22:10.973Z,99.48
2018-05-15T06:23:10.908Z,99.28
2018-05-15T06:24:10.853Z,98.33
2018-05-15T06:25:10.790Z,98.80
2018-05-15T06:26:10.726Z,98.80
2018-05-15T06:27:10.664Z,99.24
2018-05-15T06:28:10.599Z,98.99
2018-05-15T06:29:10.538Z,98.90
2018-05-15T06:30:10.477Z,98.95
2018-05-15T06:31:10.413Z,98.33
2018-05-15T06:32:10.351Z,99.24
2018-05-15T06:33:10.289Z,98.75
2018-05-15T06:34:10.228Z,98.09
2018-05-15T06:35:10.164Z,97.71
2018-05-15T06:36:10.102Z,98.75
2018-05-15T06:37:10.046Z,99.14
2018-05-15T06:38:09.975Z,99.24
2018-05-15T06:39:09.922Z,98.18
2018-05-15T06:40:09.860Z,98.38
2018-05-15T06:41:09.790Z,98.38
2018-05-15T06:42:09.731Z,98.18
2018-05-15T06:43:09.667Z,98.47
2018-05-15T06:44:09.606Z,98.28
2018-05-15T06:45:09.546Z,97.42
2018-05-15T06:46:09.561Z,97.99
2018-05-15T06:47:09.419Z,97.61
2018-05-15T06:48:09.362Z,97.52
2018-05-15T06:49:09.298Z,97.80
2018-05-15T06:50:09.235Z,97.71
2018-05-15T06:51:09.171Z,97.52
2018-05-15T06:52:09.111Z,97.13
2018-05-15T06:53:09.048Z,96.75
2018-05-15T06:54:08.996Z,95.41
2018-05-15T06:55:08.924Z,95.61
2018-05-15T06:56:08.861Z,95.51
2018-05-15T06:57:08.798Z,95.17
2018-05-15T06:58:08.737Z,95.46
2018-05-15T06:59:08.674Z,95.70
2018-05-15T07:00:08.611Z,95.36
2018-05-15T07:01:08.552Z,95.46
2018-05-15T07:02:08.490Z,94.02
2018-05-15T07:03:08.428Z,94.98
2018-05-15T07:04:08.363Z,94.98
2018-05-15T07:05:08.306Z,94.21
2018-05-15T07:06:08.238Z,93.84
2018-05-15T07:07:08.322Z,92.97
2018-05-15T07:08:08.119Z,92.78
2018-05-15T07:09:08.056Z,92.59
2018-05-15T07:10:07.998Z,91.25
2018-05-15T07:11:07.931Z,90.30
2018-05-15T07:12:07.872Z,90.10
2018-05-15T07:13:07.811Z,90.05
2018-05-15T07:14:07.757Z,90.34
2018-05-15T07:15:07.709Z,90.15
2018-05-15T07:16:07.630Z,91.11
2018-05-15T07:17:07.565Z,88.81
2018-05-15T07:18:07.501Z,89.38
2018-05-15T07:19:07.442Z,89.19
2018-05-15T07:20:07.379Z,88.90
2018-05-15T07:21:07.328Z,87.66
2018-05-15T07:22:07.256Z,87.13
2018-05-15T07:23:07.194Z,85.17
2018-05-15T07:24:07.133Z,85.60
2018-05-15T07:25:07.070Z,86.74
2018-05-15T07:26:07.022Z,86.17
2018-05-15T07:27:06.946Z,86.46
2018-05-15T07:28:06.887Z,86.65
2018-05-15T07:29:06.826Z,86.08
2018-05-15T07:30:06.766Z,84.45
2018-05-15T07:31:06.702Z,82.06
2018-05-15T07:32:06.641Z,83.30
2018-05-15T07:33:06.659Z,84.55
2018-05-15T07:34:06.523Z,84.74
2018-05-15T07:35:06.459Z,83.11
2018-05-15T07:36:06.398Z,82.34
2018-05-15T07:37:06.336Z,82.92
2018-05-15T07:38:06.275Z,82.24
2018-05-15T07:39:06.213Z,82.24
2018-05-15T07:40:06.152Z,82.15
2018-05-15T07:41:06.091Z,80.66
2018-05-15T07:42:06.035Z,81.90
2018-05-15T07:43:05.969Z,80.76
2018-05-15T07:44:05.908Z,81.04
2018-05-15T07:45:05.847Z,81.33
2018-05-15T07:46:05.785Z,81.33
2018-05-15T07:47:05.723Z,80.94
2018-05-15T07:48:05.681Z,81.23
2018-05-15T07:49:05.603Z,80.66
2018-05-15T07:50:05.543Z,81.04
2018-05-15T07:51:05.479Z,79.32
2018-05-15T07:52:05.420Z,78.55
2018-05-15T07:53:05.408Z,79.32
2018-05-15T07:54:05.300Z,78.74
2018-05-15T07:55:05.236Z,79.32
2018-05-15T07:56:05.175Z,80.47
2018-05-15T07:57:05.128Z,78.40
2018-05-15T07:58:05.055Z,78.49
2018-05-15T07:59:04.994Z,77.63
2018-05-15T08:00:04.933Z,76.67
2018-05-15T08:01:04.873Z,77.73
2018-05-15T08:02:04.910Z,76.86
2018-05-15T08:03:04.757Z,76.67
2018-05-15T08:04:04.689Z,74.47
2018-05-15T08:05:04.630Z,73.22
2018-05-15T08:06:04.571Z,72.45
2018-05-15T08:07:04.509Z,73.51
2018-05-15T08:08:04.448Z,71.69
2018-05-15T08:09:04.388Z,72.74
2018-05-15T08:10:04.329Z,72.45
2018-05-15T08:11:04.267Z,72.74
2018-05-15T08:12:04.213Z,73.90
2018-05-15T08:13:04.148Z,75.14
2018-05-15T08:14:04.086Z,73.32
2018-05-15T08:15:04.025Z,71.88
2018-05-15T08:16:03.967Z,73.13
2018-05-15T08:17:03.903Z,73.41
2018-05-15T08:18:03.842Z,74.05
2018-05-15T08:19:03.784Z,72.90
2018-05-15T08:20:03.724Z,72.55
2018-05-15T08:21:03.662Z,72.07
2018-05-15T08:22:03.600Z,71.02
2018-05-15T08:23:03.538Z,69.62
2018-05-15T08:24:03.481Z,70.19
2018-05-15T08:25:03.422Z,70.57
2018-05-15T08:26:03.359Z,70.32
2018-05-15T08:27:03.299Z,70.70
2018-05-15T08:28:03.240Z,71.28
2018-05-15T08:29:03.179Z,68.98
2018-05-15T08:30:03.125Z,69.17
2018-05-15T08:31:03.059Z,70.23
2018-05-15T08:32:02.999Z,70.32
2018-05-15T08:33:02.938Z,71.09
2018-05-15T08:34:02.885Z,70.13
2018-05-15T08:35:02.818Z,70.23
2018-05-15T08:36:02.756Z,70.61
2018-05-15T08:37:02.697Z,69.65
2018-05-15T08:38:02.636Z,70.13
2018-05-15T08:39:02.575Z,70.13
2018-05-15T08:40:02.520Z,70.03
2018-05-15T08:41:02.457Z,69.56
2018-05-15T08:42:02.401Z,69.17
2018-05-15T08:43:02.335Z,67.32
2018-05-15T08:44:02.282Z,69.74
2018-05-15T08:45:02.215Z,69.26
2018-05-15T08:46:02.157Z,69.36
2018-05-15T08:47:02.096Z,69.46
2018-05-15T08:48:02.037Z,69.17
2018-05-15T08:49:01.982Z,68.98
2018-05-15T08:50:01.918Z,69.56
2018-05-15T08:51:01.856Z,69.93
2018-05-15T08:52:01.799Z,68.02
2018-05-15T08:53:01.736Z,67.44
2018-05-15T08:54:01.680Z,67.38
2018-05-15T08:55:01.617Z,68.15
2018-05-15T08:56:01.557Z,68.44
2018-05-15T08:57:01.498Z,68.44
2018-05-15T08:58:01.439Z,67.57
2018-05-15T08:59:01.379Z,67.29
2018-05-15T09:00:01.319Z,66.52
2018-05-15T09:01:01.259Z,65.36
2018-05-15T09:02:01.199Z,64.63
2018-05-15T09:03:01.138Z,64.43
2018-05-15T09:04:01.077Z,64.82
2018-05-15T09:05:01.021Z,64.72
2018-05-15T09:06:00.959Z,65.69
2018-05-15T09:07:00.899Z,65.88
2018-05-15T09:08:00.840Z,64.05
2018-05-15T09:09:00.781Z,62.99
2018-05-15T09:10:00.727Z,62.81
2018-05-15T09:11:00.661Z,63.38
2018-05-15T09:12:00.606Z,61.94
2018-05-15T09:13:00.543Z,62.48
2018-05-15T09:14:00.486Z,65.11
2018-05-15T09:15:00.423Z,64.69
2018-05-15T09:16:00.368Z,65.56
2018-05-15T09:17:00.307Z,64.98
2018-05-15T09:18:00.248Z,66.52
2018-05-15T09:19:00.186Z,66.52
2018-05-15T09:20:00.133Z,66.86
2018-05-15T09:21:00.067Z,66.67
2018-05-15T09:22:00.012Z,67.44
2018-05-15T09:22:59.947Z,67.25
2018-05-15T09:23:59.890Z,68.34
2018-05-15T09:24:59.831Z,68.53
2018-05-15T09:25:59.771Z,67.67
2018-05-15T09:26:59.717Z,68.82
2018-05-15T09:27:59.651Z,68.57
2018-05-15T09:28:59.607Z,67.99
2018-05-15T09:29:59.537Z,68.08
2018-05-15T09:30:59.474Z,67.22
2018-05-15T09:31:59.412Z,67.38
2018-05-15T09:32:59.356Z,67.47
2018-05-15T09:33:59.297Z,67.80
2018-05-15T09:34:59.240Z,62.96
2018-05-15T09:35:59.179Z,59.01
2018-05-15T09:36:59.144Z,56.27
2018-05-15T09:37:59.061Z,54.60
2018-05-15T09:38:59.002Z,55.60
2018-05-15T09:39:58.943Z,57.06
2018-05-15T09:40:58.885Z,59.24
2018-05-15T09:41:58.827Z,59.82
2018-05-15T09:42:58.768Z,61.14
2018-05-15T09:43:58.711Z,62.00
2018-05-15T09:44:58.653Z,62.19
2018-05-15T09:45:58.598Z,63.41
2018-05-15T09:46:58.567Z,63.51
2018-05-15T09:47:58.485Z,61.97
2018-05-15T09:48:58.422Z,62.74
2018-05-15T09:49:58.366Z,61.94
2018-05-15T09:50:58.306Z,62.99
2018-05-15T09:51:58.249Z,61.75
2018-05-15T09:52:58.191Z,62.13
2018-05-15T09:53:58.132Z,63.51
2018-05-15T09:54:58.075Z,60.04
2018-05-15T09:55:58.020Z,56.18
2018-05-15T09:56:57.960Z,52.47
2018-05-15T09:57:57.903Z,51.05
2018-05-15T09:58:57.846Z,49.46
2018-05-15T09:59:57.791Z,50.35
2018-05-15T10:00:57.731Z,48.61
2018-05-15T10:01:57.675Z,46.88
2018-05-15T10:02:57.616Z,46.92
2018-05-15T10:03:57.561Z,48.97
2018-05-15T10:04:57.504Z,51.36
2018-05-15T10:05:57.449Z,53.87
2018-05-15T10:06:57.392Z,54.80
2018-05-15T10:07:57.370Z,54.32
2018-05-15T10:08:57.280Z,54.87
2018-05-15T10:09:57.228Z,55.22
2018-05-15T10:10:57.168Z,54.97
2018-05-15T10:11:57.111Z,55.55
2018-05-15T10:12:57.057Z,55.41
2018-05-15T10:13:57.002Z,53.89
2018-05-15T10:14:56.945Z,51.44
2018-05-15T10:15:56.889Z,48.79
2018-05-15T10:16:56.835Z,48.54
2018-05-15T10:17:56.779Z,51.10
2018-05-15T10:18:56.724Z,53.77
2018-05-15T10:19:56.760Z,54.80
2018-05-15T10:20:56.612Z,55.55
2018-05-15T10:21:56.556Z,54.97
2018-05-15T10:22:56.499Z,55.43
2018-05-15T10:23:56.446Z,55.59
2018-05-15T10:24:56.389Z,57.03
2018-05-15T10:25:56.337Z,58.47
2018-05-15T10:26:56.279Z,59.41
2018-05-15T10:27:56.225Z,59.50
2018-05-15T10:28:56.168Z,59.31
2018-05-15T10:29:56.203Z,60.63
2018-05-15T10:30:56.054Z,61.40
2018-05-15T10:31:55.999Z,60.14
2018-05-15T10:32:55.943Z,61.84
2018-05-15T10:33:55.886Z,61.01
2018-05-15T10:34:55.830Z,59.15
2018-05-15T10:35:55.774Z,56.41
2018-05-15T10:36:55.718Z,53.91
2018-05-15T10:37:55.661Z,53.31
2018-05-15T10:38:55.603Z,51.43
2018-05-15T10:39:55.549Z,48.76
2018-05-15T10:40:55.491Z,48.59
2018-05-15T10:41:55.433Z,48.21
2018-05-15T10:42:55.376Z,47.07
2018-05-15T10:43:55.379Z,45.84
2018-05-15T10:44:55.265Z,44.01
2018-05-15T10:45:55.211Z,43.35
2018-05-15T10:46:55.152Z,41.42
2018-05-15T10:47:55.095Z,39.78
2018-05-15T10:48:55.040Z,40.45
2018-05-15T10:49:54.984Z,39.01
2018-05-15T10:50:54.929Z,37.87
2018-05-15T10:51:54.874Z,38.91
2018-05-15T10:52:54.819Z,38.71
2018-05-15T10:53:54.768Z,40.15
2018-05-15T10:54:54.707Z,41.67
2018-05-15T10:55:54.655Z,42.83
2018-05-15T10:56:54.889Z,43.87
2018-05-15T10:57:54.544Z,44.42
2018-05-15T10:58:54.490Z,46.81
2018-05-15T10:59:54.436Z,46.88
2018-05-15T11:00:54.387Z,48.52
2018-05-15T11:01:54.332Z,49.38
2018-05-15T11:02:54.270Z,50.23
2018-05-15T11:03:54.216Z,50.81
2018-05-15T11:04:54.166Z,49.99
2018-05-15T11:05:54.105Z,48.86
2018-05-15T11:06:54.059Z,48.95
2018-05-15T11:07:53.996Z,45.21
2018-05-15T11:08:53.940Z,44.93
2018-05-15T11:09:53.885Z,44.73
2018-05-15T11:10:53.828Z,44.13
2018-05-15T11:11:53.776Z,45.75
2018-05-15T11:12:53.812Z,46.78
2018-05-15T11:13:53.665Z,48.43
2018-05-15T11:14:53.606Z,49.84
2018-05-15T11:15:53.550Z,49.46
2018-05-15T11:16:53.499Z,50.42
2018-05-15T11:17:53.441Z,50.04
2018-05-15T11:18:53.396Z,49.84
2018-05-15T11:19:53.326Z,50.42
2018-05-15T11:20:53.270Z,48.85
2018-05-15T11:21:53.214Z,50.42
2018-05-15T11:22:53.156Z,50.04
2018-05-15T11:23:53.102Z,50.61
2018-05-15T11:24:53.044Z,51.57
2018-05-15T11:25:52.988Z,50.51
2018-05-15T11:26:52.929Z,49.07
2018-05-15T11:27:52.874Z,49.65
2018-05-15T11:28:52.815Z,50.35
2018-05-15T11:29:52.760Z,50.32
2018-05-15T11:30:52.702Z,49.77
2018-05-15T11:31:52.645Z,48.90
2018-05-15T11:32:52.590Z,49.84
2018-05-15T11:33:52.532Z,50.71
2018-05-15T11:34:52.473Z,50.81
2018-05-15T11:35:52.445Z,49.63
2018-05-15T11:36:52.357Z,49.82
2018-05-15T11:37:52.302Z,50.20
2018-05-15T11:38:52.241Z,50.87
2018-05-15T11:39:52.184Z,50.87
2018-05-15T11:40:52.127Z,50.46
2018-05-15T11:41:52.129Z,51.23
2018-05-15T11:42:52.011Z,50.46
2018-05-15T11:43:51.953Z,49.99
2018-05-15T11:44:51.896Z,51.62
2018-05-15T11:45:51.845Z,51.81
2018-05-15T11:46:51.790Z,50.85
2018-05-15T11:47:51.847Z,51.23
2018-05-15T11:48:52.380Z,52.32
2018-05-15T11:49:52.383Z,50.97
2018-05-15T11:50:52.035Z,50.49
2018-05-15T11:51:52.584Z,49.63
2018-05-15T11:52:52.073Z,47.89
2018-05-15T11:53:51.489Z,48.38
2018-05-15T11:54:51.314Z,48.88
2018-05-15T11:55:51.340Z,48.49
2018-05-15T11:56:51.196Z,48.40
2018-05-15T11:57:51.246Z,48.66
2018-05-15T11:58:51.081Z,48.69
2018-05-15T11:59:51.103Z,48.88
2018-05-15T12:00:50.963Z,49.94
2018-05-15T12:01:50.907Z,45.70
2018-05-15T12:02:50.869Z,45.22
2018-05-15T12:03:50.953Z,45.51
2018-05-15T12:04:50.730Z,46.57
2018-05-15T12:05:50.669Z,46.38
2018-05-15T12:06:50.612Z,46.95
2018-05-15T12:07:50.555Z,46.57
2018-05-15T12:08:50.498Z,43.30
2018-05-15T12:09:50.437Z,43.68
2018-05-15T12:10:50.378Z,45.15
2018-05-15T12:11:50.324Z,46.11
2018-05-15T12:12:50.278Z,44.76
2018-05-15T12:13:50.202Z,44.57
2018-05-15T12:14:50.146Z,44.67
2018-05-15T12:15:50.086Z,44.76
2018-05-15T12:16:50.026Z,43.71
2018-05-15T12:17:49.969Z,43.32
2018-05-15T12:18:49.912Z,42.84
2018-05-15T12:19:49.850Z,42.74
2018-05-15T12:20:49.793Z,42.55
2018-05-15T12:21:49.740Z,43.23
2018-05-15T12:22:49.674Z,44.48
2018-05-15T12:23:49.616Z,45.15
2018-05-15T12:24:49.560Z,45.05
2018-05-15T12:25:49.499Z,43.32
2018-05-15T12:26:49.441Z,44.38
2018-05-15T12:27:49.382Z,42.84
2018-05-15T12:28:49.339Z,41.88
2018-05-15T12:29:49.287Z,43.23
2018-05-15T12:30:49.208Z,42.55
2018-05-15T12:31:49.151Z,41.71
2018-05-15T12:32:49.091Z,42.76
2018-05-15T12:33:49.032Z,46.91
2018-05-15T12:34:48.978Z,48.25
2018-05-15T12:35:48.932Z,48.90
2018-05-15T12:36:48.858Z,51.02
2018-05-15T12:37:48.879Z,52.54
2018-05-15T12:38:48.740Z,52.34
2018-05-15T12:39:48.682Z,53.59
2018-05-15T12:40:48.623Z,53.31
2018-05-15T12:41:48.591Z,52.54
2018-05-15T12:42:48.505Z,53.31
2018-05-15T12:43:48.454Z,52.34
2018-05-15T12:44:48.390Z,52.73
2018-05-15T12:45:48.331Z,53.76
2018-05-15T12:46:48.358Z,54.14
2018-05-15T12:47:48.225Z,54.34
2018-05-15T12:48:48.226Z,53.47
2018-05-15T12:49:48.097Z,53.09
2018-05-15T12:50:48.039Z,53.66
2018-05-15T12:51:47.983Z,53.57